createdAt,value
2023-09-28T02:14:17.907Z,24.07
2023-09-28T02:16:46.973Z,24.87
2023-09-28T02:19:17.360Z,23.47
2023-09-28T02:21:47.643Z,26.23
2023-09-28T02:24:16.466Z,26.27
2023-09-28T02:26:45.412Z,22.13
2023-09-28T02:29:14.330Z,25.13
2023-09-28T02:31:44.460Z,22.07
2023-09-28T02:34:16.352Z,25.60
2023-09-28T02:36:45.393Z,25.70
2023-09-28T02:39:15.253Z,26.93
2023-09-28T02:41:44.176Z,25.40
2023-09-28T02:44:15.312Z,26.23
2023-09-28T02:46:44.457Z,26.30
2023-09-28T02:49:13.359Z,26.47
2023-09-28T02:51:43.861Z,26.33
2023-09-28T02:54:15.220Z,24.43
2023-09-28T02:56:44.243Z,24.37
2023-09-28T02:59:13.212Z,22.77
2023-09-28T03:01:42.813Z,25.47
2023-09-28T03:04:11.755Z,28.83
2023-09-28T03:06:41.152Z,25.47
2023-09-28T03:09:10.038Z,25.80
2023-09-28T03:11:40.067Z,29.13
2023-09-28T03:14:08.868Z,27.97
2023-09-28T03:16:38.599Z,25.67
2023-09-28T03:19:09.587Z,25.70
2023-09-28T03:21:40.180Z,25.47
2023-09-28T03:24:09.847Z,26.33
2023-09-28T03:26:38.759Z,25.80
2023-09-28T03:29:08.103Z,23.57
2023-09-28T03:31:36.992Z,27.37
2023-09-28T03:34:05.978Z,29.73
2023-09-28T03:36:38.288Z,27.50
2023-09-28T03:39:07.020Z,29.43
2023-09-28T03:41:36.917Z,27.53
2023-09-28T03:44:07.797Z,28.90
2023-09-28T03:46:44.941Z,24.27
2023-09-28T03:49:15.969Z,25.93
2023-09-28T03:51:49.318Z,28.77
2023-09-28T03:54:22.908Z,27.52
2023-09-28T03:56:52.973Z,30.80
2023-09-28T03:59:22.200Z,25.50
2023-09-28T04:01:54.138Z,26.70
2023-09-28T04:04:23.114Z,31.20
2023-09-28T04:06:52.049Z,29.60
2023-09-28T04:09:21.112Z,32.03
2023-09-28T04:11:50.298Z,29.73
2023-09-28T04:14:19.414Z,25.33
2023-09-28T04:16:49.034Z,23.93
2023-09-28T04:19:17.907Z,25.90
2023-09-28T04:21:46.722Z,26.60
2023-09-28T04:24:15.515Z,24.97
2023-09-28T04:26:44.638Z,32.10
2023-09-28T04:29:13.473Z,27.70
2023-09-28T04:31:51.409Z,27.87
2023-09-28T04:34:20.801Z,29.37
2023-09-28T04:36:50.695Z,31.43
2023-09-28T04:39:19.932Z,25.30
2023-09-28T04:41:48.804Z,28.43
2023-09-28T04:44:19.578Z,30.70
2023-09-28T04:46:51.073Z,25.63
2023-09-28T04:49:21.126Z,28.67
2023-09-28T04:51:50.562Z,28.20
2023-09-28T04:54:20.850Z,30.33
2023-09-28T04:56:49.595Z,34.70
2023-09-28T04:59:18.689Z,31.03
2023-09-28T05:01:48.198Z,31.23
2023-09-28T05:04:17.098Z,28.10
2023-09-28T05:06:46.778Z,31.37
2023-09-28T05:09:15.804Z,31.13
2023-09-28T05:11:45.198Z,33.20
2023-09-28T05:14:14.027Z,26.40
2023-09-28T05:16:45.539Z,28.00
2023-09-28T05:19:14.750Z,27.43
2023-09-28T05:21:43.586Z,36.83
2023-09-28T05:24:12.332Z,28.60
2023-09-28T05:26:42.394Z,33.00
2023-09-28T05:29:11.292Z,33.83
2023-09-28T05:31:49.758Z,30.57
2023-09-28T05:34:18.947Z,34.43
2023-09-28T05:36:48.207Z,34.63
2023-09-28T05:39:18.428Z,33.63
2023-09-28T05:41:47.315Z,37.97
2023-09-28T05:44:16.312Z,36.63
2023-09-28T05:46:46.127Z,34.50
2023-09-28T05:49:15.408Z,33.67
2023-09-28T05:51:45.112Z,35.97
2023-09-28T05:54:14.451Z,35.60
2023-09-28T05:56:45.163Z,36.07
2023-09-28T05:59:14.076Z,33.50
2023-09-28T06:01:47.530Z,30.03
2023-09-28T06:04:19.661Z,32.25
2023-09-28T06:06:51.392Z,33.47
2023-09-28T06:09:20.489Z,31.25
2023-09-28T06:11:50.128Z,37.37
2023-09-28T06:14:20.438Z,30.03
2023-09-28T06:16:49.618Z,30.80
2023-09-28T06:19:19.064Z,46.50
2023-09-28T06:21:50.522Z,32.73
2023-09-28T06:24:22.702Z,33.10
2023-09-28T06:26:54.193Z,25.57
2023-09-28T06:29:23.584Z,33.73
2023-09-28T06:31:53.756Z,24.17
2023-09-28T06:34:22.807Z,28.50
2023-09-28T06:36:55.780Z,28.93
2023-09-28T06:39:28.555Z,23.83
2023-09-28T06:42:12.492Z,21.50
2023-09-28T06:44:53.577Z,36.40
2023-09-28T06:47:29.565Z,29.32
2023-09-28T06:50:11.662Z,28.87
2023-09-28T06:52:43.771Z,30.90
2023-09-28T06:55:14.033Z,23.23
2023-09-28T06:57:43.310Z,22.00
2023-09-28T07:00:17.717Z,21.55
2023-09-28T07:02:48.349Z,20.93
2023-09-28T07:05:18.672Z,24.80
2023-09-28T07:07:49.201Z,23.63
2023-09-28T07:10:22.327Z,22.90
2023-09-28T07:12:54.219Z,20.93
2023-09-28T07:15:23.291Z,27.00
2023-09-28T07:17:52.448Z,31.00
2023-09-28T07:20:25.937Z,19.77
2023-09-28T07:22:55.698Z,19.07
2023-09-28T07:25:26.601Z,20.17
2023-09-28T07:27:57.244Z,20.93
2023-09-28T07:30:26.525Z,25.00
2023-09-28T07:32:57.804Z,27.00
2023-09-28T07:35:29.304Z,16.60
2023-09-28T07:37:59.137Z,24.97
2023-09-28T07:40:44.727Z,20.93
2023-09-28T07:43:17.848Z,19.40
2023-09-28T07:45:47.348Z,22.07
2023-09-28T07:48:19.049Z,20.03
2023-09-28T07:50:51.722Z,25.23
2023-09-28T07:53:21.303Z,25.57
2023-09-28T07:55:52.361Z,16.80
2023-09-28T07:58:26.678Z,23.03
2023-09-28T08:00:56.434Z,23.27
2023-09-28T08:03:32.704Z,14.97
2023-09-28T08:06:03.243Z,17.10
2023-09-28T08:08:34.358Z,19.63
2023-09-28T08:11:03.965Z,21.60
2023-09-28T08:13:34.586Z,18.87
2023-09-28T08:16:04.837Z,15.17
2023-09-28T08:18:35.961Z,17.90
2023-09-28T08:21:10.825Z,13.27
2023-09-28T08:23:43.253Z,17.87
2023-09-28T08:26:16.275Z,14.40
2023-09-28T08:31:17.393Z,15.67
2023-09-28T08:33:46.776Z,17.07
2023-09-28T08:36:15.832Z,17.83
2023-09-28T08:38:48.634Z,16.87
2023-09-28T08:41:21.060Z,15.45
2023-09-28T08:43:55.369Z,16.50
2023-09-28T08:46:44.682Z,19.97
2023-09-28T08:49:18.509Z,23.87
2023-09-28T08:51:49.378Z,18.10
2023-09-28T08:54:19.681Z,18.57
2023-09-28T08:56:49.920Z,19.20
2023-09-28T08:59:19.949Z,17.63
2023-09-28T09:01:49.776Z,20.27
2023-09-28T09:04:18.893Z,17.80
2023-09-28T09:06:48.737Z,17.30
2023-09-28T09:09:20.940Z,13.10
2023-09-28T09:11:54.567Z,20.53
2023-09-28T09:14:30.058Z,16.77
2023-09-28T09:16:59.882Z,14.53
2023-09-28T09:19:32.503Z,14.17
2023-09-28T09:22:05.863Z,17.43
2023-09-28T09:24:53.449Z,16.53
2023-09-28T09:27:29.434Z,15.60
2023-09-28T09:29:59.603Z,15.70
2023-09-28T09:32:31.101Z,10.67
2023-09-28T09:35:00.750Z,19.50
2023-09-28T09:37:29.922Z,13.73
2023-09-28T09:40:11.992Z,13.20
2023-09-28T09:42:42.280Z,15.80
2023-09-28T09:45:13.025Z,20.67
2023-09-28T09:47:50.211Z,15.23
2023-09-28T09:50:22.002Z,20.07
2023-09-28T09:52:53.421Z,14.30
2023-09-28T09:55:23.381Z,17.30
2023-09-28T09:57:58.150Z,15.87
2023-09-28T10:00:32.049Z,13.55
2023-09-28T10:03:06.193Z,13.55
2023-09-28T10:05:37.523Z,16.43
2023-09-28T10:08:09.127Z,12.20
2023-09-28T10:10:39.921Z,11.83
2023-09-28T10:13:09.827Z,16.40
2023-09-28T10:15:39.613Z,14.57
2023-09-28T10:18:09.032Z,18.53
2023-09-28T10:20:39.590Z,14.17
2023-09-28T10:23:24.489Z,17.53
2023-09-28T10:25:59.345Z,13.10
2023-09-28T10:28:28.954Z,13.23
2023-09-28T10:31:18.994Z,15.90
2023-09-28T10:34:00.937Z,16.00
2023-09-28T10:36:37.814Z,10.43
2023-09-28T10:39:12.345Z,12.70
2023-09-28T10:41:46.657Z,12.00
2023-09-28T10:44:18.373Z,12.33
2023-09-28T10:46:52.323Z,13.17
2023-09-28T10:49:26.419Z,10.37
2023-09-28T10:51:57.774Z,13.67
2023-09-28T10:54:26.748Z,16.63
2023-09-28T10:56:56.522Z,12.90
2023-09-28T10:59:26.464Z,9.73
2023-09-28T11:01:58.454Z,15.37
2023-09-28T11:04:43.327Z,13.50
2023-09-28T11:07:18.567Z,13.17
2023-09-28T11:09:51.894Z,13.23
2023-09-28T11:12:21.039Z,11.67
2023-09-28T11:14:57.272Z,10.77
2023-09-28T11:17:26.917Z,10.10
2023-09-28T11:19:57.371Z,12.13
2023-09-28T11:22:29.384Z,9.17
2023-09-28T11:24:59.557Z,14.60
2023-09-28T11:27:29.114Z,20.57
2023-09-28T11:29:58.878Z,11.70
2023-09-28T11:32:27.977Z,11.90
2023-09-28T11:34:59.288Z,11.30
2023-09-28T11:37:29.701Z,15.10
2023-09-28T11:40:00.469Z,14.67
2023-09-28T11:42:29.372Z,14.47
2023-09-28T11:45:00.230Z,12.33
2023-09-28T11:47:29.477Z,18.53
2023-09-28T11:49:58.950Z,10.87
2023-09-28T11:52:29.198Z,18.90
2023-09-28T11:54:58.241Z,15.90
2023-09-28T11:57:28.566Z,17.60
2023-09-28T11:59:57.653Z,13.20
2023-09-28T12:02:26.802Z,17.77
2023-09-28T12:04:59.777Z,11.07
2023-09-28T12:07:29.934Z,13.62
2023-09-28T12:10:04.651Z,11.07
2023-09-28T12:12:37.617Z,10.67
2023-09-28T12:15:11.590Z,14.77
2023-09-28T12:17:41.310Z,10.03
2023-09-28T12:20:14.619Z,19.27
2023-09-28T12:22:44.913Z,12.33
2023-09-28T12:25:14.591Z,13.40
2023-09-28T12:27:45.645Z,15.57
2023-09-28T12:30:19.484Z,10.40
2023-09-28T12:32:52.052Z,11.00
2023-09-28T12:35:22.162Z,9.30
2023-09-28T12:37:52.258Z,17.87
2023-09-28T12:40:21.531Z,10.93
2023-09-28T12:42:50.596Z,14.53
2023-09-28T12:45:19.584Z,13.33
2023-09-28T12:47:48.758Z,15.83
2023-09-28T12:50:18.052Z,16.30
2023-09-28T12:52:48.833Z,13.07
2023-09-28T12:55:17.831Z,8.87
2023-09-28T12:57:46.938Z,12.10
2023-09-28T13:00:19.221Z,10.33
2023-09-28T13:02:48.645Z,13.13
2023-09-28T13:05:19.041Z,8.73
2023-09-28T13:07:49.217Z,10.20
2023-09-28T13:10:23.317Z,18.03
2023-09-28T13:12:54.322Z,10.17
2023-09-28T13:15:31.353Z,10.80
2023-09-28T13:18:01.572Z,9.43
2023-09-28T13:20:34.533Z,15.37
2023-09-28T13:23:03.719Z,14.95
2023-09-28T13:25:35.099Z,10.10
2023-09-28T13:28:11.480Z,11.70
2023-09-28T13:30:44.122Z,11.73
2023-09-28T13:33:15.948Z,10.80
2023-09-28T13:35:46.066Z,10.67
2023-09-28T13:38:15.649Z,13.73
2023-09-28T13:40:52.015Z,9.83
2023-09-28T13:43:27.648Z,14.77
2023-09-28T13:45:56.936Z,8.43
2023-09-28T13:48:31.379Z,14.83
2023-09-28T13:51:06.004Z,11.70
2023-09-28T13:53:42.413Z,11.13
2023-09-28T13:56:11.559Z,10.03
2023-09-28T13:58:40.505Z,12.07
2023-09-28T14:01:13.680Z,9.53
2023-09-28T14:03:42.902Z,12.77
2023-09-28T14:06:12.367Z,7.57
2023-09-28T14:08:42.900Z,14.20
2023-09-28T14:11:22.844Z,9.97
2023-09-28T14:13:52.680Z,18.67
2023-09-28T14:16:21.691Z,11.80
2023-09-28T14:18:51.625Z,9.03
2023-09-28T14:21:21.641Z,10.13
2023-09-28T14:23:53.742Z,14.97
2023-09-28T14:26:26.175Z,12.47
2023-09-28T14:28:58.116Z,13.37
2023-09-28T14:31:27.902Z,10.53
2023-09-28T14:33:57.155Z,10.77
2023-09-28T14:36:27.277Z,10.83
2023-09-28T14:39:00.164Z,9.80
2023-09-28T14:41:29.642Z,12.80
2023-09-28T14:44:00.034Z,11.53
2023-09-28T14:46:29.261Z,9.03
2023-09-28T14:48:58.235Z,7.37
2023-09-28T14:51:27.509Z,9.97
2023-09-28T14:53:57.271Z,13.03
2023-09-28T14:56:27.368Z,13.80
2023-09-28T14:59:06.258Z,10.90
2023-09-28T15:01:43.984Z,13.50
2023-09-28T15:04:16.547Z,11.87
2023-09-28T15:06:53.136Z,10.33
2023-09-28T15:09:22.131Z,10.27
2023-09-28T15:12:06.099Z,9.57
2023-09-28T15:14:38.628Z,15.57
2023-09-28T15:17:08.384Z,9.30
2023-09-28T15:19:38.039Z,11.87
2023-09-28T15:22:07.545Z,8.30
2023-09-28T15:24:36.614Z,11.73
2023-09-28T15:27:05.592Z,12.30
2023-09-28T15:29:35.935Z,14.80
2023-09-28T15:32:09.271Z,13.90
2023-09-28T15:37:06.664Z,14.77
2023-09-28T15:39:37.911Z,12.47
2023-09-28T15:42:07.133Z,13.33
2023-09-28T15:44:36.944Z,14.33
2023-09-28T15:47:06.123Z,13.13
2023-09-28T15:49:38.505Z,9.17
2023-09-28T15:52:09.059Z,12.17
2023-09-28T15:54:38.733Z,14.70
2023-09-28T15:57:07.755Z,12.90
2023-09-28T15:59:38.039Z,12.13
2023-09-28T16:02:08.065Z,13.10
2023-09-28T16:04:37.252Z,9.47
2023-09-28T16:07:07.499Z,13.00
2023-09-28T16:09:36.784Z,14.47
2023-09-28T16:12:06.647Z,9.07
2023-09-28T16:14:36.001Z,9.53
2023-09-28T16:17:05.639Z,10.60
2023-09-28T16:19:35.758Z,12.07
2023-09-28T16:22:04.893Z,16.37
2023-09-28T16:24:36.678Z,12.00
2023-09-28T16:27:05.642Z,10.57
2023-09-28T16:29:35.004Z,10.93
2023-09-28T16:32:03.958Z,11.80
2023-09-28T16:34:34.274Z,11.60
2023-09-28T16:37:03.294Z,9.53
2023-09-28T16:39:32.331Z,9.23
2023-09-28T16:42:02.647Z,13.43
2023-09-28T16:44:31.942Z,13.20
2023-09-28T16:47:02.391Z,10.97
2023-09-28T16:49:31.305Z,14.10
2023-09-28T16:52:00.184Z,17.00
2023-09-28T16:54:29.157Z,11.97
2023-09-28T16:56:58.242Z,14.10
2023-09-28T16:59:28.358Z,11.97
2023-09-28T17:02:00.522Z,14.73
2023-09-28T17:04:30.314Z,10.67
2023-09-28T17:07:00.483Z,13.97
2023-09-28T17:09:29.413Z,12.23
2023-09-28T17:11:58.919Z,11.97
2023-09-28T17:14:27.903Z,16.77
2023-09-28T17:16:58.753Z,14.70
2023-09-28T17:19:27.751Z,13.30
2023-09-28T17:21:57.077Z,10.20
2023-09-28T17:24:26.320Z,18.10
2023-09-28T17:26:56.710Z,16.80
2023-09-28T17:29:25.959Z,18.07
2023-09-28T17:31:57.764Z,12.43
2023-09-28T17:34:27.293Z,18.60
2023-09-28T17:36:57.538Z,18.47
2023-09-28T17:39:31.134Z,18.53
2023-09-28T17:42:00.350Z,13.83
2023-09-28T17:44:30.586Z,18.47
2023-09-28T17:47:00.934Z,14.93
2023-09-28T17:49:30.203Z,15.60
2023-09-28T17:51:59.205Z,16.67
2023-09-28T17:54:28.707Z,16.80
2023-09-28T17:56:57.762Z,15.13
2023-09-28T17:59:26.794Z,18.13
2023-09-28T18:02:09.117Z,15.07
2023-09-28T18:04:46.659Z,14.50
2023-09-28T18:07:17.941Z,12.03
2023-09-28T18:12:21.229Z,14.67
2023-09-28T18:14:56.273Z,15.10
2023-09-28T18:24:00.335Z,13.70
2023-09-28T18:26:30.136Z,14.03
2023-09-28T18:31:57.816Z,14.93
2023-09-28T18:34:27.964Z,17.80
2023-09-28T18:37:15.376Z,15.17
2023-09-28T18:39:47.855Z,15.07
2023-09-28T18:42:20.434Z,14.40
2023-09-28T18:44:49.852Z,16.60
2023-09-28T18:47:20.701Z,14.10
2023-09-28T18:49:50.107Z,17.20
2023-09-28T18:52:31.538Z,12.47
2023-09-28T18:55:03.730Z,12.57
2023-09-28T18:57:37.777Z,12.33
2023-09-28T19:00:15.901Z,13.60
2023-09-28T19:02:50.214Z,16.53
2023-09-28T19:05:19.528Z,14.27
2023-09-28T19:07:49.435Z,16.67
2023-09-28T19:10:18.743Z,12.37
2023-09-28T19:12:47.725Z,18.43
2023-09-28T19:15:17.032Z,12.20
2023-09-28T19:17:45.995Z,17.70
2023-09-28T19:20:26.067Z,14.97
2023-09-28T19:22:55.900Z,12.73
2023-09-28T19:25:26.586Z,13.80
2023-09-28T19:27:55.541Z,15.40
2023-09-28T19:30:28.631Z,12.83
2023-09-28T19:32:57.684Z,15.47
2023-09-28T19:35:29.387Z,16.47
2023-09-28T19:37:58.375Z,14.17
2023-09-28T19:40:27.879Z,14.37
2023-09-28T19:43:01.274Z,16.70
2023-09-28T19:45:30.583Z,12.60
2023-09-28T19:48:01.842Z,16.47
2023-09-28T19:50:31.219Z,15.23
2023-09-28T19:53:04.278Z,15.40
2023-09-28T19:55:36.960Z,16.90
2023-09-28T19:58:06.706Z,15.43
2023-09-28T20:00:39.304Z,13.53
2023-09-28T20:03:08.767Z,16.40
2023-09-28T20:05:41.399Z,16.17
2023-09-28T20:08:10.377Z,15.40
2023-09-28T20:10:41.858Z,15.70
2023-09-28T20:13:17.063Z,14.23
2023-09-28T20:15:46.287Z,13.05
2023-09-28T20:18:15.330Z,15.43
2023-09-28T20:20:44.360Z,16.23
2023-09-28T20:23:16.773Z,16.97
2023-09-28T20:25:46.651Z,15.53
2023-09-28T20:28:15.760Z,14.13
2023-09-28T20:30:44.700Z,17.50
2023-09-28T20:33:14.141Z,15.73
2023-09-28T20:35:47.178Z,18.60
2023-09-28T20:38:29.145Z,15.07
2023-09-28T20:40:58.057Z,15.87
2023-09-28T20:43:31.993Z,13.90
2023-09-28T20:46:04.840Z,16.40
2023-09-28T20:48:38.075Z,16.23
2023-09-28T20:51:11.066Z,17.63
2023-09-28T20:53:43.366Z,16.83
2023-09-28T20:56:16.441Z,17.57
2023-09-28T20:58:46.502Z,15.90
2023-09-28T21:01:15.994Z,19.90
2023-09-28T21:03:45.181Z,15.10
2023-09-28T21:06:14.249Z,15.47
2023-09-28T21:08:43.333Z,16.25
2023-09-28T21:11:18.885Z,15.33
2023-09-28T21:13:48.039Z,15.33
2023-09-28T21:16:17.871Z,19.25
2023-09-28T21:18:47.284Z,17.40
2023-09-28T21:21:18.987Z,13.80
2023-09-28T21:23:49.852Z,19.35
2023-09-28T21:26:19.726Z,20.07
2023-09-28T21:28:49.039Z,14.57
2023-09-28T21:31:17.899Z,15.63
2023-09-28T21:33:47.088Z,18.07
2023-09-28T21:36:17.073Z,18.17
2023-09-28T21:38:48.097Z,15.80
2023-09-28T21:41:17.124Z,15.43
2023-09-28T21:43:46.036Z,16.77
2023-09-28T21:46:22.158Z,16.73
2023-09-28T21:48:51.280Z,15.53
2023-09-28T21:51:20.945Z,17.97
2023-09-28T21:53:50.387Z,17.03
2023-09-28T21:56:20.502Z,16.33
2023-09-28T21:58:53.545Z,17.10
2023-09-28T22:01:22.601Z,16.27
2023-09-28T22:03:54.580Z,20.50
2023-09-28T22:06:23.466Z,22.37
2023-09-28T22:08:52.333Z,15.87
2023-09-28T22:11:22.738Z,18.23
2023-09-28T22:13:51.585Z,18.03
2023-09-28T22:16:27.499Z,16.40
2023-09-28T22:18:57.157Z,19.07
2023-09-28T22:21:26.436Z,23.05
2023-09-28T22:23:56.287Z,18.13
2023-09-28T22:26:25.409Z,19.87
2023-09-28T22:28:54.950Z,20.53
2023-09-28T22:31:38.802Z,16.80
2023-09-28T22:34:10.900Z,22.85
2023-09-28T22:36:40.528Z,19.03
2023-09-28T22:39:11.010Z,17.80
2023-09-28T22:41:40.091Z,17.77
2023-09-28T22:44:08.946Z,18.83
2023-09-28T22:46:37.879Z,16.27
2023-09-28T22:49:07.337Z,18.30
2023-09-28T22:51:36.473Z,18.00
2023-09-28T22:54:06.320Z,18.87
2023-09-28T22:56:35.879Z,21.20
2023-09-28T22:59:05.149Z,19.37
2023-09-28T23:01:35.674Z,21.27
2023-09-28T23:04:06.239Z,17.83
2023-09-28T23:06:37.645Z,19.33
2023-09-28T23:09:07.840Z,20.13
2023-09-28T23:11:37.444Z,24.37
2023-09-28T23:14:09.586Z,25.60
2023-09-28T23:16:39.005Z,21.60
2023-09-28T23:19:08.415Z,18.93
2023-09-28T23:21:37.430Z,26.67
2023-09-28T23:24:14.201Z,21.67
2023-09-28T23:26:43.158Z,21.87
2023-09-28T23:29:15.330Z,24.93
2023-09-28T23:31:44.797Z,19.57
2023-09-28T23:34:14.576Z,21.27
2023-09-28T23:36:47.041Z,23.07
2023-09-28T23:39:16.899Z,22.00
2023-09-28T23:41:49.291Z,22.65
2023-09-28T23:44:18.591Z,22.27
2023-09-28T23:46:49.492Z,19.27
2023-09-28T23:49:19.562Z,20.95
2023-09-28T23:51:50.878Z,20.67
2023-09-28T23:54:20.837Z,18.77
2023-09-28T23:56:49.959Z,23.75
2023-09-28T23:59:20.585Z,19.50
